Huvudsida
METAR-TAF:

METAR-TAF

Flygplatser :

Ağrı, Turkiet

latitud: 39-39-16N, longitud: 43-01-38E, höjd: 1665 m

Aktuellt väderrapport

Denna rapport gjordes för 1 timme och 35 minuter sedan, klockan 08:50 UTC
Vind 5 kt varierande vindriktning
Temperatur 25°C
Fuktighet 32%
Tryck 1015 hPa
Sikt 10 km eller mer
Få moln på en höjd av 4000 ft

METAR: LTCO 220850Z VRB05KT 9999 FEW040 25/07 Q1015

Tid: 13:25 (10:25 UTC)

Väderprognos

Denna rapport gjordes för 2 timmar och 45 minuter sedan, klockan 07:40 UTC
Prognos gäller från 22 kl. 09 UTC till 22 kl. 18 UTC
Vind 12 kt från nord
Sikt 10 km eller mer
Inga moln under 1 500 m eller inga cumulonimbus

TAF: LTCO 220740Z 2209/2218 35012KT CAVOK

Aktuella väderrapporter och prognoser från 4000 flygplatser (METAR- och TAF-rapporter).

De tillgängliga stationerna syns som gula och röda prickar på kartan.

För musen över prickarna för att se namnen på stationerna.

Klicka sedan för att få väderrapporter och prognoser.

För att ändra kartan: Klicka på de gröna knapparna med ett svart kors på för att zooma in; den gröna knappen med ett streck på för att zooma ut; eller på de gröna pilarna för angränsande kartor.


METAR-TAF: